sensor_id;sensor_type;location;lat;lon;timestamp;temperature;humidity
21502;DHT22;27639;48.674;9.242;2022-10-04T00:01:29;11.60;61.40
21502;DHT22;27639;48.674;9.242;2022-10-04T00:04:08;11.50;61.30
21502;DHT22;27639;48.674;9.242;2022-10-04T00:06:36;11.50;61.30
21502;DHT22;27639;48.674;9.242;2022-10-04T00:09:15;11.50;61.60
21502;DHT22;27639;48.674;9.242;2022-10-04T00:11:46;11.40;61.90
21502;DHT22;27639;48.674;9.242;2022-10-04T00:14:19;11.40;61.40
21502;DHT22;27639;48.674;9.242;2022-10-04T00:16:48;11.40;61.40
21502;DHT22;27639;48.674;9.242;2022-10-04T00:24:37;11.40;61.40
21502;DHT22;27639;48.674;9.242;2022-10-04T00:27:25;11.40;61.60
21502;DHT22;27639;48.674;9.242;2022-10-04T00:40:21;11.30;61.10
21502;DHT22;27639;48.674;9.242;2022-10-04T00:48:02;11.40;61.20
21502;DHT22;27639;48.674;9.242;2022-10-04T00:50:35;11.40;61.10
21502;DHT22;27639;48.674;9.242;2022-10-04T00:53:19;11.30;61.00
21502;DHT22;27639;48.674;9.242;2022-10-04T00:55:55;11.30;61.00
21502;DHT22;27639;48.674;9.242;2022-10-04T00:58:27;11.20;61.00
21502;DHT22;27639;48.674;9.242;2022-10-04T01:00:54;11.30;61.00
21502;DHT22;27639;48.674;9.242;2022-10-04T01:03:30;11.30;61.00
21502;DHT22;27639;48.674;9.242;2022-10-04T01:06:03;11.30;60.80
21502;DHT22;27639;48.674;9.242;2022-10-04T01:08:40;11.20;60.70
21502;DHT22;27639;48.674;9.242;2022-10-04T01:11:17;11.20;60.70
21502;DHT22;27639;48.674;9.242;2022-10-04T01:13:50;11.20;60.80
21502;DHT22;27639;48.674;9.242;2022-10-04T01:16:26;11.20;61.10
21502;DHT22;27639;48.674;9.242;2022-10-04T01:18:52;11.10;60.80
21502;DHT22;27639;48.674;9.242;2022-10-04T01:23:48;11.10;60.90
21502;DHT22;27639;48.674;9.242;2022-10-04T01:29:04;11.10;60.90
21502;DHT22;27639;48.674;9.242;2022-10-04T01:31:32;11.10;61.10
21502;DHT22;27639;48.674;9.242;2022-10-04T01:34:02;11.10;61.30
21502;DHT22;27639;48.674;9.242;2022-10-04T01:36:29;11.10;61.20
21502;DHT22;27639;48.674;9.242;2022-10-04T01:38:56;11.10;61.30
21502;DHT22;27639;48.674;9.242;2022-10-04T01:44:03;11.10;61.20
21502;DHT22;27639;48.674;9.242;2022-10-04T01:46:35;11.10;61.40
21502;DHT22;27639;48.674;9.242;2022-10-04T01:49:09;11.00;61.40
21502;DHT22;27639;48.674;9.242;2022-10-04T01:51:47;11.00;61.40
21502;DHT22;27639;48.674;9.242;2022-10-04T01:54:19;11.00;61.50
21502;DHT22;27639;48.674;9.242;2022-10-04T01:56:57;11.00;61.90
21502;DHT22;27639;48.674;9.242;2022-10-04T01:59:34;11.00;62.00
21502;DHT22;27639;48.674;9.242;2022-10-04T02:02:05;11.00;62.10
21502;DHT22;27639;48.674;9.242;2022-10-04T02:04:35;11.00;62.10
21502;DHT22;27639;48.674;9.242;2022-10-04T02:07:03;11.10;61.80
21502;DHT22;27639;48.674;9.242;2022-10-04T02:09:38;11.10;61.90
21502;DHT22;27639;48.674;9.242;2022-10-04T02:12:06;11.10;61.50
21502;DHT22;27639;48.674;9.242;2022-10-04T02:14:34;11.20;61.50
21502;DHT22;27639;48.674;9.242;2022-10-04T02:17:05;11.20;61.40
21502;DHT22;27639;48.674;9.242;2022-10-04T02:19:36;11.20;61.30
21502;DHT22;27639;48.674;9.242;2022-10-04T02:22:03;11.10;61.50
21502;DHT22;27639;48.674;9.242;2022-10-04T02:24:34;11.10;61.50
21502;DHT22;27639;48.674;9.242;2022-10-04T02:27:02;11.00;61.80
21502;DHT22;27639;48.674;9.242;2022-10-04T02:29:27;11.00;62.10
21502;DHT22;27639;48.674;9.242;2022-10-04T02:31:53;11.00;62.20
21502;DHT22;27639;48.674;9.242;2022-10-04T02:34:38;11.00;62.30
21502;DHT22;27639;48.674;9.242;2022-10-04T02:37:05;10.90;62.20
21502;DHT22;27639;48.674;9.242;2022-10-04T02:39:51;10.90;62.40
21502;DHT22;27639;48.674;9.242;2022-10-04T02:44:55;10.90;62.20
21502;DHT22;27639;48.674;9.242;2022-10-04T02:47:26;10.80;62.30
21502;DHT22;27639;48.674;9.242;2022-10-04T02:50:03;10.70;62.30
21502;DHT22;27639;48.674;9.242;2022-10-04T02:52:35;10.70;62.30
21502;DHT22;27639;48.674;9.242;2022-10-04T02:55:30;10.60;62.40
21502;DHT22;27639;48.674;9.242;2022-10-04T02:57:55;10.70;62.70
21502;DHT22;27639;48.674;9.242;2022-10-04T03:00:24;10.60;62.60
21502;DHT22;27639;48.674;9.242;2022-10-04T03:03:31;10.70;62.70
21502;DHT22;27639;48.674;9.242;2022-10-04T03:06:06;10.70;62.50
21502;DHT22;27639;48.674;9.242;2022-10-04T03:08:53;10.70;62.70
21502;DHT22;27639;48.674;9.242;2022-10-04T03:11:22;10.70;62.50
21502;DHT22;27639;48.674;9.242;2022-10-04T03:13:52;10.60;62.60
21502;DHT22;27639;48.674;9.242;2022-10-04T03:16:19;10.60;62.60
21502;DHT22;27639;48.674;9.242;2022-10-04T03:18:45;10.60;62.70
21502;DHT22;27639;48.674;9.242;2022-10-04T03:21:13;10.50;62.60
21502;DHT22;27639;48.674;9.242;2022-10-04T03:23:41;10.50;62.70
21502;DHT22;27639;48.674;9.242;2022-10-04T03:29:00;10.60;62.60
21502;DHT22;27639;48.674;9.242;2022-10-04T03:31:31;10.60;62.40
21502;DHT22;27639;48.674;9.242;2022-10-04T03:33:58;10.60;62.20
21502;DHT22;27639;48.674;9.242;2022-10-04T03:36:25;10.70;62.00
21502;DHT22;27639;48.674;9.242;2022-10-04T03:38:53;10.70;61.90
21502;DHT22;27639;48.674;9.242;2022-10-04T03:41:20;10.70;61.30
21502;DHT22;27639;48.674;9.242;2022-10-04T03:43:47;10.70;61.80
21502;DHT22;27639;48.674;9.242;2022-10-04T03:46:16;10.60;61.90
21502;DHT22;27639;48.674;9.242;2022-10-04T03:48:45;10.60;61.80
21502;DHT22;27639;48.674;9.242;2022-10-04T03:51:21;10.60;61.90
21502;DHT22;27639;48.674;9.242;2022-10-04T03:53:50;10.60;61.90
21502;DHT22;27639;48.674;9.242;2022-10-04T03:56:21;10.50;61.80
21502;DHT22;27639;48.674;9.242;2022-10-04T03:58:50;10.50;62.10
21502;DHT22;27639;48.674;9.242;2022-10-04T04:01:41;10.50;62.30
21502;DHT22;27639;48.674;9.242;2022-10-04T04:04:42;10.50;62.20
21502;DHT22;27639;48.674;9.242;2022-10-04T04:07:13;10.40;62.20
21502;DHT22;27639;48.674;9.242;2022-10-04T04:12:24;10.50;62.40
21502;DHT22;27639;48.674;9.242;2022-10-04T04:14:52;10.40;62.20
21502;DHT22;27639;48.674;9.242;2022-10-04T04:17:40;10.50;62.30
21502;DHT22;27639;48.674;9.242;2022-10-04T04:20:36;10.40;62.00
21502;DHT22;27639;48.674;9.242;2022-10-04T04:25:45;10.40;61.90
21502;DHT22;27639;48.674;9.242;2022-10-04T04:28:32;10.40;61.40
21502;DHT22;27639;48.674;9.242;2022-10-04T04:31:05;10.40;61.00
21502;DHT22;27639;48.674;9.242;2022-10-04T04:33:43;10.30;61.00
21502;DHT22;27639;48.674;9.242;2022-10-04T04:36:14;10.30;61.00
21502;DHT22;27639;48.674;9.242;2022-10-04T04:38:40;10.20;61.20
21502;DHT22;27639;48.674;9.242;2022-10-04T04:41:28;10.20;61.40
21502;DHT22;27639;48.674;9.242;2022-10-04T04:43:56;10.10;61.80
21502;DHT22;27639;48.674;9.242;2022-10-04T04:46:22;10.00;61.80
21502;DHT22;27639;48.674;9.242;2022-10-04T04:48:52;10.00;61.90
21502;DHT22;27639;48.674;9.242;2022-10-04T04:51:21;10.00;62.10
21502;DHT22;27639;48.674;9.242;2022-10-04T04:53:49;10.00;62.20
21502;DHT22;27639;48.674;9.242;2022-10-04T04:56:18;10.10;62.10
21502;DHT22;27639;48.674;9.242;2022-10-04T04:58:47;10.10;62.00
21502;DHT22;27639;48.674;9.242;2022-10-04T05:06:36;10.20;61.40
21502;DHT22;27639;48.674;9.242;2022-10-04T05:09:03;10.10;61.60
21502;DHT22;27639;48.674;9.242;2022-10-04T05:11:35;10.10;60.70
21502;DHT22;27639;48.674;9.242;2022-10-04T05:14:10;10.00;60.60
21502;DHT22;27639;48.674;9.242;2022-10-04T05:16:47;10.00;60.40
21502;DHT22;27639;48.674;9.242;2022-10-04T05:21:47;9.90;62.40
21502;DHT22;27639;48.674;9.242;2022-10-04T05:24:21;9.90;62.40
21502;DHT22;27639;48.674;9.242;2022-10-04T05:27:02;9.90;62.20
21502;DHT22;27639;48.674;9.242;2022-10-04T05:29:32;9.80;62.10
21502;DHT22;27639;48.674;9.242;2022-10-04T05:32:10;9.80;62.00
21502;DHT22;27639;48.674;9.242;2022-10-04T05:34:41;9.80;61.90
21502;DHT22;27639;48.674;9.242;2022-10-04T05:37:33;9.70;61.80
21502;DHT22;27639;48.674;9.242;2022-10-04T05:42:48;9.70;61.90
21502;DHT22;27639;48.674;9.242;2022-10-04T05:45:28;9.70;61.90
21502;DHT22;27639;48.674;9.242;2022-10-04T05:47:56;9.70;61.60
21502;DHT22;27639;48.674;9.242;2022-10-04T05:53:17;9.70;61.50
21502;DHT22;27639;48.674;9.242;2022-10-04T06:23:17;9.80;63.10
21502;DHT22;27639;48.674;9.242;2022-10-04T06:26:04;9.90;63.10
21502;DHT22;27639;48.674;9.242;2022-10-04T06:28:35;9.90;63.10
21502;DHT22;27639;48.674;9.242;2022-10-04T06:52:38;10.30;62.20
21502;DHT22;27639;48.674;9.242;2022-10-04T06:55:52;10.40;62.10
21502;DHT22;27639;48.674;9.242;2022-10-04T07:00:53;10.30;62.00
21502;DHT22;27639;48.674;9.242;2022-10-04T07:03:34;10.30;62.20
21502;DHT22;27639;48.674;9.242;2022-10-04T07:06:03;10.20;62.00
21502;DHT22;27639;48.674;9.242;2022-10-04T07:22:10;10.40;63.00
21502;DHT22;27639;48.674;9.242;2022-10-04T07:29:59;10.60;62.60
21502;DHT22;27639;48.674;9.242;2022-10-04T07:32:35;10.70;63.40
21502;DHT22;27639;48.674;9.242;2022-10-04T07:37:57;10.70;62.50
21502;DHT22;27639;48.674;9.242;2022-10-04T07:40:33;10.70;62.70
21502;DHT22;27639;48.674;9.242;2022-10-04T07:43:21;10.70;63.10
21502;DHT22;27639;48.674;9.242;2022-10-04T07:45:48;10.80;63.30
21502;DHT22;27639;48.674;9.242;2022-10-04T07:48:20;10.80;63.40
21502;DHT22;27639;48.674;9.242;2022-10-04T07:53:32;11.00;63.80
21502;DHT22;27639;48.674;9.242;2022-10-04T07:56:06;11.10;63.90
21502;DHT22;27639;48.674;9.242;2022-10-04T08:01:41;11.20;63.80
21502;DHT22;27639;48.674;9.242;2022-10-04T08:04:10;11.20;64.00
21502;DHT22;27639;48.674;9.242;2022-10-04T08:10:00;11.20;63.70
21502;DHT22;27639;48.674;9.242;2022-10-04T08:12:50;11.30;63.70
21502;DHT22;27639;48.674;9.242;2022-10-04T08:15:36;11.30;64.10
21502;DHT22;27639;48.674;9.242;2022-10-04T08:19:03;11.30;63.70
21502;DHT22;27639;48.674;9.242;2022-10-04T08:21:15;11.40;64.20
21502;DHT22;27639;48.674;9.242;2022-10-04T08:29:25;11.40;64.60
21502;DHT22;27639;48.674;9.242;2022-10-04T08:32:31;11.40;64.60
21502;DHT22;27639;48.674;9.242;2022-10-04T08:35:28;11.50;64.60
21502;DHT22;27639;48.674;9.242;2022-10-04T08:52:28;12.00;66.70
21502;DHT22;27639;48.674;9.242;2022-10-04T08:57:58;12.40;67.20
21502;DHT22;27639;48.674;9.242;2022-10-04T09:03:51;12.80;66.90
21502;DHT22;27639;48.674;9.242;2022-10-04T09:11:43;13.20;66.20
21502;DHT22;27639;48.674;9.242;2022-10-04T09:22:54;13.50;65.40
21502;DHT22;27639;48.674;9.242;2022-10-04T09:25:33;13.60;65.30
21502;DHT22;27639;48.674;9.242;2022-10-04T09:33:50;13.80;65.30
21502;DHT22;27639;48.674;9.242;2022-10-04T09:36:50;14.00;65.20
21502;DHT22;27639;48.674;9.242;2022-10-04T09:39:59;14.20;65.00
21502;DHT22;27639;48.674;9.242;2022-10-04T09:45:46;14.70;64.70
21502;DHT22;27639;48.674;9.242;2022-10-04T09:48:22;14.80;64.50
21502;DHT22;27639;48.674;9.242;2022-10-04T09:57:07;15.40;62.90
21502;DHT22;27639;48.674;9.242;2022-10-04T09:59:36;15.50;62.00
21502;DHT22;27639;48.674;9.242;2022-10-04T10:02:38;15.50;61.80
21502;DHT22;27639;48.674;9.242;2022-10-04T10:19:51;16.00;60.20
21502;DHT22;27639;48.674;9.242;2022-10-04T10:34:12;16.60;59.60
21502;DHT22;27639;48.674;9.242;2022-10-04T10:40:02;16.80;58.60
21502;DHT22;27639;48.674;9.242;2022-10-04T10:45:19;16.90;59.00
21502;DHT22;27639;48.674;9.242;2022-10-04T10:48:09;17.00;59.10
21502;DHT22;27639;48.674;9.242;2022-10-04T10:50:59;17.00;58.70
21502;DHT22;27639;48.674;9.242;2022-10-04T10:56:59;17.10;59.10
21502;DHT22;27639;48.674;9.242;2022-10-04T11:17:00;18.00;57.70
21502;DHT22;27639;48.674;9.242;2022-10-04T11:28:01;18.10;58.10
21502;DHT22;27639;48.674;9.242;2022-10-04T11:30:51;18.30;57.90
21502;DHT22;27639;48.674;9.242;2022-10-04T11:34:14;18.40;57.50
21502;DHT22;27639;48.674;9.242;2022-10-04T11:45:26;18.60;56.80
21502;DHT22;27639;48.674;9.242;2022-10-04T11:53:47;18.70;57.10
21502;DHT22;27639;48.674;9.242;2022-10-04T11:56:28;18.70;56.60
21502;DHT22;27639;48.674;9.242;2022-10-04T12:01:37;19.00;56.40
21502;DHT22;27639;48.674;9.242;2022-10-04T12:04:27;19.10;56.20
21502;DHT22;27639;48.674;9.242;2022-10-04T12:10:41;19.30;56.30
21502;DHT22;27639;48.674;9.242;2022-10-04T12:38:39;19.90;56.20
21502;DHT22;27639;48.674;9.242;2022-10-04T12:41:59;20.00;55.40
21502;DHT22;27639;48.674;9.242;2022-10-04T12:47:34;20.20;55.20
21502;DHT22;27639;48.674;9.242;2022-10-04T13:04:50;20.50;55.30
21502;DHT22;27639;48.674;9.242;2022-10-04T13:13:15;20.80;54.20
21502;DHT22;27639;48.674;9.242;2022-10-04T13:16:04;20.70;53.90
21502;DHT22;27639;48.674;9.242;2022-10-04T13:21:04;20.80;54.40
21502;DHT22;27639;48.674;9.242;2022-10-04T13:24:02;20.90;54.20
21502;DHT22;27639;48.674;9.242;2022-10-04T13:26:43;20.90;53.60
21502;DHT22;27639;48.674;9.242;2022-10-04T13:29:51;21.00;53.90
21502;DHT22;27639;48.674;9.242;2022-10-04T13:32:24;21.10;53.70
21502;DHT22;27639;48.674;9.242;2022-10-04T13:35:11;21.10;53.40
21502;DHT22;27639;48.674;9.242;2022-10-04T13:38:09;21.20;53.40
21502;DHT22;27639;48.674;9.242;2022-10-04T13:40:54;21.20;53.10
21502;DHT22;27639;48.674;9.242;2022-10-04T13:54:31;21.40;52.40
21502;DHT22;27639;48.674;9.242;2022-10-04T13:57:30;21.30;53.00
21502;DHT22;27639;48.674;9.242;2022-10-04T14:00:11;21.40;52.70
21502;DHT22;27639;48.674;9.242;2022-10-04T14:03:01;21.50;52.50
21502;DHT22;27639;48.674;9.242;2022-10-04T14:08:18;21.70;51.60
21502;DHT22;27639;48.674;9.242;2022-10-04T14:19:26;21.70;51.60
21502;DHT22;27639;48.674;9.242;2022-10-04T14:30:12;21.90;51.00
21502;DHT22;27639;48.674;9.242;2022-10-04T14:36:22;21.70;51.10
21502;DHT22;27639;48.674;9.242;2022-10-04T14:42:25;21.60;51.40
21502;DHT22;27639;48.674;9.242;2022-10-04T14:53:18;21.70;51.30
21502;DHT22;27639;48.674;9.242;2022-10-04T15:01:24;21.70;51.00
21502;DHT22;27639;48.674;9.242;2022-10-04T15:04:56;21.70;51.20
21502;DHT22;27639;48.674;9.242;2022-10-04T15:06:50;21.60;51.40
21502;DHT22;27639;48.674;9.242;2022-10-04T15:12:16;21.60;51.70
21502;DHT22;27639;48.674;9.242;2022-10-04T15:25:43;21.30;52.00
21502;DHT22;27639;48.674;9.242;2022-10-04T15:31:11;21.40;52.10
21502;DHT22;27639;48.674;9.242;2022-10-04T15:33:38;21.40;52.10
21502;DHT22;27639;48.674;9.242;2022-10-04T15:38:54;21.40;52.10
21502;DHT22;27639;48.674;9.242;2022-10-04T15:47:12;21.30;52.10
21502;DHT22;27639;48.674;9.242;2022-10-04T15:58:23;21.30;52.50
21502;DHT22;27639;48.674;9.242;2022-10-04T16:06:46;21.40;52.40
21502;DHT22;27639;48.674;9.242;2022-10-04T16:25:49;21.30;53.40
21502;DHT22;27639;48.674;9.242;2022-10-04T16:34:07;21.00;53.70
21502;DHT22;27639;48.674;9.242;2022-10-04T16:36:53;21.00;53.70
21502;DHT22;27639;48.674;9.242;2022-10-04T16:45:47;20.80;53.40
21502;DHT22;27639;48.674;9.242;2022-10-04T16:50:14;20.80;53.60
21502;DHT22;27639;48.674;9.242;2022-10-04T16:53:40;20.70;53.70
21502;DHT22;27639;48.674;9.242;2022-10-04T16:56:21;20.60;53.90
21502;DHT22;27639;48.674;9.242;2022-10-04T17:07:26;20.00;54.70
21502;DHT22;27639;48.674;9.242;2022-10-04T17:10:05;19.90;54.70
21502;DHT22;27639;48.674;9.242;2022-10-04T17:15:36;19.80;55.10
21502;DHT22;27639;48.674;9.242;2022-10-04T17:23:16;19.50;55.30
21502;DHT22;27639;48.674;9.242;2022-10-04T17:28:33;19.30;55.80
21502;DHT22;27639;48.674;9.242;2022-10-04T17:31:14;19.20;55.90
21502;DHT22;27639;48.674;9.242;2022-10-04T17:49:35;18.40;57.10
21502;DHT22;27639;48.674;9.242;2022-10-04T17:52:27;18.40;57.10
21502;DHT22;27639;48.674;9.242;2022-10-04T17:55:26;18.30;57.30
21502;DHT22;27639;48.674;9.242;2022-10-04T17:57:54;18.20;57.40
21502;DHT22;27639;48.674;9.242;2022-10-04T18:00:24;18.20;57.70
21502;DHT22;27639;48.674;9.242;2022-10-04T18:08:44;18.10;57.70
21502;DHT22;27639;48.674;9.242;2022-10-04T18:14:10;18.00;58.50
21502;DHT22;27639;48.674;9.242;2022-10-04T18:16:49;18.00;57.90
21502;DHT22;27639;48.674;9.242;2022-10-04T18:22:14;17.90;58.00
21502;DHT22;27639;48.674;9.242;2022-10-04T18:24:46;17.90;58.10
21502;DHT22;27639;48.674;9.242;2022-10-04T18:27:22;17.90;58.20
21502;DHT22;27639;48.674;9.242;2022-10-04T18:30:15;17.80;58.10
21502;DHT22;27639;48.674;9.242;2022-10-04T18:32:53;17.70;58.20
21502;DHT22;27639;48.674;9.242;2022-10-04T18:35:20;17.60;58.30
21502;DHT22;27639;48.674;9.242;2022-10-04T18:38:12;17.50;58.40
21502;DHT22;27639;48.674;9.242;2022-10-04T18:40:41;17.50;58.60
21502;DHT22;27639;48.674;9.242;2022-10-04T18:43:32;17.40;58.70
21502;DHT22;27639;48.674;9.242;2022-10-04T18:48:57;17.30;58.70
21502;DHT22;27639;48.674;9.242;2022-10-04T18:51:59;17.30;58.70
21502;DHT22;27639;48.674;9.242;2022-10-04T19:05:53;16.90;59.20
21502;DHT22;27639;48.674;9.242;2022-10-04T19:14:31;16.70;59.40
21502;DHT22;27639;48.674;9.242;2022-10-04T19:17:11;16.60;59.30
21502;DHT22;27639;48.674;9.242;2022-10-04T19:22:43;16.50;59.50
21502;DHT22;27639;48.674;9.242;2022-10-04T19:27:42;16.40;59.80
21502;DHT22;27639;48.674;9.242;2022-10-04T19:38:31;16.30;60.20
21502;DHT22;27639;48.674;9.242;2022-10-04T19:41:10;16.30;60.20
21502;DHT22;27639;48.674;9.242;2022-10-04T19:46:33;16.30;60.00
21502;DHT22;27639;48.674;9.242;2022-10-04T19:49:02;16.30;60.00
21502;DHT22;27639;48.674;9.242;2022-10-04T19:51:48;16.10;60.00
21502;DHT22;27639;48.674;9.242;2022-10-04T19:54:21;16.10;60.10
21502;DHT22;27639;48.674;9.242;2022-10-04T19:56:49;16.00;60.20
21502;DHT22;27639;48.674;9.242;2022-10-04T19:59:39;15.90;60.30
21502;DHT22;27639;48.674;9.242;2022-10-04T20:02:08;15.90;60.20
21502;DHT22;27639;48.674;9.242;2022-10-04T20:04:34;15.90;60.60
21502;DHT22;27639;48.674;9.242;2022-10-04T20:07:03;15.90;60.50
21502;DHT22;27639;48.674;9.242;2022-10-04T20:09:53;15.90;60.30
21502;DHT22;27639;48.674;9.242;2022-10-04T20:12:39;15.90;60.10
21502;DHT22;27639;48.674;9.242;2022-10-04T20:17:42;15.80;60.40
21502;DHT22;27639;48.674;9.242;2022-10-04T20:20:09;15.70;60.40
21502;DHT22;27639;48.674;9.242;2022-10-04T20:30:58;15.60;60.50
21502;DHT22;27639;48.674;9.242;2022-10-04T20:36:05;15.50;60.60
21502;DHT22;27639;48.674;9.242;2022-10-04T20:38:55;15.40;60.70
21502;DHT22;27639;48.674;9.242;2022-10-04T20:43:57;15.30;60.90
21502;DHT22;27639;48.674;9.242;2022-10-04T20:46:34;15.30;61.00
21502;DHT22;27639;48.674;9.242;2022-10-04T20:49:13;15.20;61.10
21502;DHT22;27639;48.674;9.242;2022-10-04T20:51:46;15.20;61.20
21502;DHT22;27639;48.674;9.242;2022-10-04T20:54:19;15.10;61.00
21502;DHT22;27639;48.674;9.242;2022-10-04T20:56:49;15.10;61.10
21502;DHT22;27639;48.674;9.242;2022-10-04T20:59:16;15.10;61.20
21502;DHT22;27639;48.674;9.242;2022-10-04T21:01:59;15.20;61.30
21502;DHT22;27639;48.674;9.242;2022-10-04T21:04:28;15.20;61.20
21502;DHT22;27639;48.674;9.242;2022-10-04T21:07:03;15.10;61.20
21502;DHT22;27639;48.674;9.242;2022-10-04T21:09:34;15.20;61.30
21502;DHT22;27639;48.674;9.242;2022-10-04T21:12:01;15.10;61.10
21502;DHT22;27639;48.674;9.242;2022-10-04T21:14:27;15.10;61.10
21502;DHT22;27639;48.674;9.242;2022-10-04T21:16:55;15.00;60.90
21502;DHT22;27639;48.674;9.242;2022-10-04T21:19:47;15.00;61.10
21502;DHT22;27639;48.674;9.242;2022-10-04T21:25:04;14.90;61.30
21502;DHT22;27639;48.674;9.242;2022-10-04T21:27:36;14.90;61.10
21502;DHT22;27639;48.674;9.242;2022-10-04T21:30:11;14.80;61.40
21502;DHT22;27639;48.674;9.242;2022-10-04T21:32:38;14.80;61.60
21502;DHT22;27639;48.674;9.242;2022-10-04T21:35:05;14.80;61.60
21502;DHT22;27639;48.674;9.242;2022-10-04T21:37:31;14.80;61.60
21502;DHT22;27639;48.674;9.242;2022-10-04T21:39:57;14.80;61.40
21502;DHT22;27639;48.674;9.242;2022-10-04T21:42:22;14.70;61.40
21502;DHT22;27639;48.674;9.242;2022-10-04T21:44:48;14.70;61.40
21502;DHT22;27639;48.674;9.242;2022-10-04T21:47:14;14.80;61.60
21502;DHT22;27639;48.674;9.242;2022-10-04T21:49:39;14.70;61.50
21502;DHT22;27639;48.674;9.242;2022-10-04T21:52:05;14.80;61.40
21502;DHT22;27639;48.674;9.242;2022-10-04T21:54:32;14.70;61.30
21502;DHT22;27639;48.674;9.242;2022-10-04T21:56:57;14.70;61.20
21502;DHT22;27639;48.674;9.242;2022-10-04T21:59:23;14.60;61.40
21502;DHT22;27639;48.674;9.242;2022-10-04T22:01:49;14.60;61.50
21502;DHT22;27639;48.674;9.242;2022-10-04T22:04:15;14.60;61.40
21502;DHT22;27639;48.674;9.242;2022-10-04T22:06:41;14.60;61.50
21502;DHT22;27639;48.674;9.242;2022-10-04T22:09:07;14.60;61.50
21502;DHT22;27639;48.674;9.242;2022-10-04T22:11:32;14.60;61.40
21502;DHT22;27639;48.674;9.242;2022-10-04T22:13:58;14.50;61.40
21502;DHT22;27639;48.674;9.242;2022-10-04T22:16:24;14.50;61.40
21502;DHT22;27639;48.674;9.242;2022-10-04T22:18:50;14.50;61.40
21502;DHT22;27639;48.674;9.242;2022-10-04T22:21:15;14.40;61.40
21502;DHT22;27639;48.674;9.242;2022-10-04T22:23:42;14.40;61.30
21502;DHT22;27639;48.674;9.242;2022-10-04T22:26:13;14.40;61.30
21502;DHT22;27639;48.674;9.242;2022-10-04T22:28:42;14.30;61.20
21502;DHT22;27639;48.674;9.242;2022-10-04T22:31:21;14.20;61.10
21502;DHT22;27639;48.674;9.242;2022-10-04T22:33:48;14.20;61.10
21502;DHT22;27639;48.674;9.242;2022-10-04T22:36:21;14.10;62.00
21502;DHT22;27639;48.674;9.242;2022-10-04T22:38:59;14.10;61.30
21502;DHT22;27639;48.674;9.242;2022-10-04T22:41:29;14.10;61.30
21502;DHT22;27639;48.674;9.242;2022-10-04T22:43:57;14.10;61.10
21502;DHT22;27639;48.674;9.242;2022-10-04T22:46:31;14.00;60.90
21502;DHT22;27639;48.674;9.242;2022-10-04T22:48:57;14.00;61.10
21502;DHT22;27639;48.674;9.242;2022-10-04T22:51:27;13.80;61.40
21502;DHT22;27639;48.674;9.242;2022-10-04T22:53:52;13.80;61.80
21502;DHT22;27639;48.674;9.242;2022-10-04T22:56:18;13.80;61.70
21502;DHT22;27639;48.674;9.242;2022-10-04T22:58:44;13.90;61.70
21502;DHT22;27639;48.674;9.242;2022-10-04T23:01:15;13.90;61.50
21502;DHT22;27639;48.674;9.242;2022-10-04T23:03:45;13.80;61.20
21502;DHT22;27639;48.674;9.242;2022-10-04T23:06:11;13.80;61.20
21502;DHT22;27639;48.674;9.242;2022-10-04T23:08:42;13.80;61.20
21502;DHT22;27639;48.674;9.242;2022-10-04T23:11:08;13.80;61.40
21502;DHT22;27639;48.674;9.242;2022-10-04T23:13:34;13.80;61.30
21502;DHT22;27639;48.674;9.242;2022-10-04T23:16:12;13.80;61.20
21502;DHT22;27639;48.674;9.242;2022-10-04T23:18:39;13.80;61.20
21502;DHT22;27639;48.674;9.242;2022-10-04T23:21:29;13.70;61.00
21502;DHT22;27639;48.674;9.242;2022-10-04T23:24:00;13.70;61.00
21502;DHT22;27639;48.674;9.242;2022-10-04T23:26:37;13.60;61.10
21502;DHT22;27639;48.674;9.242;2022-10-04T23:29:22;13.60;61.20
21502;DHT22;27639;48.674;9.242;2022-10-04T23:31:48;13.50;61.30
21502;DHT22;27639;48.674;9.242;2022-10-04T23:34:33;13.40;61.40
21502;DHT22;27639;48.674;9.242;2022-10-04T23:36:59;13.50;61.30
21502;DHT22;27639;48.674;9.242;2022-10-04T23:39:28;13.40;61.40
21502;DHT22;27639;48.674;9.242;2022-10-04T23:41:55;13.40;61.50
21502;DHT22;27639;48.674;9.242;2022-10-04T23:44:22;13.50;61.70
21502;DHT22;27639;48.674;9.242;2022-10-04T23:46:48;13.50;61.70
21502;DHT22;27639;48.674;9.242;2022-10-04T23:49:15;13.50;61.60
21502;DHT22;27639;48.674;9.242;2022-10-04T23:51:42;13.50;61.60
21502;DHT22;27639;48.674;9.242;2022-10-04T23:54:15;13.50;61.70
21502;DHT22;27639;48.674;9.242;2022-10-04T23:56:41;13.50;61.70
21502;DHT22;27639;48.674;9.242;2022-10-04T23:59:16;13.50;61.70
